sensor_id;sensor_type;location;lat;lon;timestamp;P1;durP1;ratioP1;P2;durP2;ratioP2
37867;SDS011;24011;48.880;9.190;2022-07-25T01:49:45;1.80;;;1.70;;
37867;SDS011;24011;48.880;9.190;2022-07-25T01:54:16;1.77;;;1.67;;
37867;SDS011;24011;48.880;9.190;2022-07-25T03:02:06;4.35;;;4.05;;
37867;SDS011;24011;48.880;9.190;2022-07-25T04:06:23;4.65;;;4.35;;
37867;SDS011;24011;48.880;9.190;2022-07-25T04:09:51;4.63;;;4.32;;
37867;SDS011;24011;48.880;9.190;2022-07-25T04:13:11;4.50;;;4.20;;
37867;SDS011;24011;48.880;9.190;2022-07-25T04:16:39;4.75;;;4.45;;
37867;SDS011;24011;48.880;9.190;2022-07-25T04:19:23;4.35;;;4.05;;
37867;SDS011;24011;48.880;9.190;2022-07-25T04:22:16;4.38;;;4.07;;
37867;SDS011;24011;48.880;9.190;2022-07-25T04:24:59;4.53;;;4.22;;
37867;SDS011;24011;48.880;9.190;2022-07-25T04:27:43;4.30;;;4.00;;
37867;SDS011;24011;48.880;9.190;2022-07-25T04:30:22;4.40;;;4.10;;
37867;SDS011;24011;48.880;9.190;2022-07-25T04:33:05;4.40;;;4.10;;
37867;SDS011;24011;48.880;9.190;2022-07-25T04:35:40;4.65;;;4.30;;
37867;SDS011;24011;48.880;9.190;2022-07-25T04:38:34;4.57;;;4.20;;
37867;SDS011;24011;48.880;9.190;2022-07-25T04:41:38;4.60;;;4.30;;
37867;SDS011;24011;48.880;9.190;2022-07-25T04:44:28;4.35;;;4.05;;
37867;SDS011;24011;48.880;9.190;2022-07-25T04:47:15;4.45;;;4.15;;
37867;SDS011;24011;48.880;9.190;2022-07-25T04:50:01;4.55;;;4.25;;
37867;SDS011;24011;48.880;9.190;2022-07-25T04:52:53;4.90;;;4.50;;
37867;SDS011;24011;48.880;9.190;2022-07-25T04:55:45;4.82;;;4.43;;
37867;SDS011;24011;48.880;9.190;2022-07-25T04:58:41;4.53;;;4.22;;
37867;SDS011;24011;48.880;9.190;2022-07-25T05:01:38;5.10;;;4.70;;
37867;SDS011;24011;48.880;9.190;2022-07-25T05:04:27;4.80;;;4.50;;
37867;SDS011;24011;48.880;9.190;2022-07-25T05:07:23;5.22;;;4.82;;
37867;SDS011;24011;48.880;9.190;2022-07-25T05:10:10;5.32;;;4.93;;
37867;SDS011;24011;48.880;9.190;2022-07-25T05:13:02;5.47;;;5.07;;
37867;SDS011;24011;48.880;9.190;2022-07-25T05:15:55;5.30;;;4.90;;
37867;SDS011;24011;48.880;9.190;2022-07-25T05:18:45;4.93;;;4.57;;
37867;SDS011;24011;48.880;9.190;2022-07-25T05:24:43;5.00;;;4.60;;
37867;SDS011;24011;48.880;9.190;2022-07-25T05:28:21;4.78;;;4.47;;
37867;SDS011;24011;48.880;9.190;2022-07-25T05:31:09;4.68;;;4.38;;
37867;SDS011;24011;48.880;9.190;2022-07-25T05:34:05;5.25;;;4.93;;
37867;SDS011;24011;48.880;9.190;2022-07-25T05:37:07;5.03;;;4.53;;
37867;SDS011;24011;48.880;9.190;2022-07-25T05:40:09;5.00;;;4.70;;
37867;SDS011;24011;48.880;9.190;2022-07-25T05:42:52;5.20;;;4.80;;
37867;SDS011;24011;48.880;9.190;2022-07-25T05:45:48;5.13;;;4.72;;
37867;SDS011;24011;48.880;9.190;2022-07-25T05:48:57;4.63;;;4.22;;
37867;SDS011;24011;48.880;9.190;2022-07-25T05:55:06;4.97;;;4.68;;
37867;SDS011;24011;48.880;9.190;2022-07-25T05:58:14;5.43;;;5.03;;
37867;SDS011;24011;48.880;9.190;2022-07-25T06:01:16;5.20;;;4.80;;
37867;SDS011;24011;48.880;9.190;2022-07-25T06:07:15;4.93;;;4.57;;
37867;SDS011;24011;48.880;9.190;2022-07-25T06:10:22;4.65;;;4.35;;
37867;SDS011;24011;48.880;9.190;2022-07-25T06:13:41;4.90;;;4.60;;
37867;SDS011;24011;48.880;9.190;2022-07-25T06:16:55;5.10;;;4.70;;
37867;SDS011;24011;48.880;9.190;2022-07-25T06:20:02;4.80;;;4.47;;
37867;SDS011;24011;48.880;9.190;2022-07-25T06:23:22;4.95;;;4.55;;
37867;SDS011;24011;48.880;9.190;2022-07-25T06:26:36;4.50;;;4.20;;
37867;SDS011;24011;48.880;9.190;2022-07-25T06:29:45;4.68;;;4.38;;
37867;SDS011;24011;48.880;9.190;2022-07-25T06:33:17;4.55;;;4.25;;
37867;SDS011;24011;48.880;9.190;2022-07-25T06:36:53;4.50;;;4.18;;
37867;SDS011;24011;48.880;9.190;2022-07-25T06:39:59;4.82;;;4.50;;
37867;SDS011;24011;48.880;9.190;2022-07-25T06:43:05;4.68;;;4.38;;
37867;SDS011;24011;48.880;9.190;2022-07-25T06:46:06;4.90;;;4.60;;
37867;SDS011;24011;48.880;9.190;2022-07-25T06:53:30;4.70;;;4.40;;
37867;SDS011;24011;48.880;9.190;2022-07-25T06:56:24;4.70;;;4.40;;
37867;SDS011;24011;48.880;9.190;2022-07-25T06:59:24;4.50;;;4.20;;
37867;SDS011;24011;48.880;9.190;2022-07-25T07:03:00;4.53;;;4.13;;
37867;SDS011;24011;48.880;9.190;2022-07-25T07:09:20;4.55;;;4.25;;
37867;SDS011;24011;48.880;9.190;2022-07-25T07:12:18;4.45;;;4.15;;
37867;SDS011;24011;48.880;9.190;2022-07-25T07:15:10;5.05;;;4.40;;
37867;SDS011;24011;48.880;9.190;2022-07-25T07:18:06;4.68;;;4.38;;
37867;SDS011;24011;48.880;9.190;2022-07-25T07:21:02;4.50;;;4.20;;
37867;SDS011;24011;48.880;9.190;2022-07-25T07:24:16;4.65;;;4.32;;
37867;SDS011;24011;48.880;9.190;2022-07-25T07:27:19;5.57;;;3.92;;
37867;SDS011;24011;48.880;9.190;2022-07-25T07:30:18;4.45;;;4.10;;
37867;SDS011;24011;48.880;9.190;2022-07-25T07:33:38;4.53;;;4.22;;
37867;SDS011;24011;48.880;9.190;2022-07-25T07:36:49;4.30;;;4.00;;
37867;SDS011;24011;48.880;9.190;2022-07-25T07:39:48;4.43;;;4.13;;
37867;SDS011;24011;48.880;9.190;2022-07-25T07:42:52;4.25;;;3.95;;
37867;SDS011;24011;48.880;9.190;2022-07-25T07:45:50;4.70;;;4.40;;
37867;SDS011;24011;48.880;9.190;2022-07-25T07:48:52;4.55;;;4.20;;
37867;SDS011;24011;48.880;9.190;2022-07-25T07:51:36;5.07;;;4.68;;
37867;SDS011;24011;48.880;9.190;2022-07-25T07:55:19;4.88;;;4.47;;
37867;SDS011;24011;48.880;9.190;2022-07-25T07:58:19;4.32;;;4.03;;
37867;SDS011;24011;48.880;9.190;2022-07-25T08:01:32;4.40;;;4.10;;
37867;SDS011;24011;48.880;9.190;2022-07-25T08:04:41;4.82;;;4.43;;
37867;SDS011;24011;48.880;9.190;2022-07-25T08:07:20;5.22;;;4.82;;
37867;SDS011;24011;48.880;9.190;2022-07-25T08:10:10;4.80;;;4.40;;
37867;SDS011;24011;48.880;9.190;2022-07-25T08:12:49;5.38;;;4.88;;
37867;SDS011;24011;48.880;9.190;2022-07-25T08:15:49;5.25;;;4.85;;
37867;SDS011;24011;48.880;9.190;2022-07-25T08:18:43;4.90;;;4.50;;
37867;SDS011;24011;48.880;9.190;2022-07-25T08:21:40;5.20;;;4.80;;
37867;SDS011;24011;48.880;9.190;2022-07-25T08:24:48;5.22;;;4.72;;
37867;SDS011;24011;48.880;9.190;2022-07-25T08:28:00;4.82;;;4.43;;
37867;SDS011;24011;48.880;9.190;2022-07-25T08:30:54;5.03;;;4.63;;
37867;SDS011;24011;48.880;9.190;2022-07-25T08:33:55;4.80;;;4.40;;
37867;SDS011;24011;48.880;9.190;2022-07-25T08:36:55;5.18;;;4.80;;
37867;SDS011;24011;48.880;9.190;2022-07-25T08:40:23;5.35;;;4.85;;
37867;SDS011;24011;48.880;9.190;2022-07-25T08:43:35;5.00;;;4.63;;
37867;SDS011;24011;48.880;9.190;2022-07-25T08:46:50;5.25;;;4.85;;
37867;SDS011;24011;48.880;9.190;2022-07-25T08:50:06;4.90;;;4.50;;
37867;SDS011;24011;48.880;9.190;2022-07-25T08:53:16;4.90;;;4.55;;
37867;SDS011;24011;48.880;9.190;2022-07-25T08:56:29;5.22;;;4.82;;
37867;SDS011;24011;48.880;9.190;2022-07-25T09:00:14;5.07;;;4.68;;
37867;SDS011;24011;48.880;9.190;2022-07-25T09:03:20;5.05;;;4.63;;
37867;SDS011;24011;48.880;9.190;2022-07-25T09:06:19;4.85;;;4.45;;
37867;SDS011;24011;48.880;9.190;2022-07-25T09:09:30;5.15;;;4.63;;
37867;SDS011;24011;48.880;9.190;2022-07-25T09:12:32;5.40;;;5.00;;
37867;SDS011;24011;48.880;9.190;2022-07-25T09:16:14;5.22;;;4.82;;
37867;SDS011;24011;48.880;9.190;2022-07-25T09:19:25;4.80;;;4.40;;
37867;SDS011;24011;48.880;9.190;2022-07-25T09:22:24;4.43;;;4.13;;
37867;SDS011;24011;48.880;9.190;2022-07-25T09:32:01;4.80;;;4.50;;
37867;SDS011;24011;48.880;9.190;2022-07-25T09:35:16;5.30;;;4.80;;
37867;SDS011;24011;48.880;9.190;2022-07-25T09:38:18;4.50;;;4.20;;
37867;SDS011;24011;48.880;9.190;2022-07-25T09:41:02;4.80;;;4.30;;
37867;SDS011;24011;48.880;9.190;2022-07-25T09:43:58;4.53;;;4.22;;
37867;SDS011;24011;48.880;9.190;2022-07-25T09:46:55;4.10;;;3.80;;
37867;SDS011;24011;48.880;9.190;2022-07-25T09:49:57;4.60;;;4.30;;
37867;SDS011;24011;48.880;9.190;2022-07-25T09:53:15;4.63;;;4.32;;
37867;SDS011;24011;48.880;9.190;2022-07-25T09:56:14;4.40;;;4.10;;
37867;SDS011;24011;48.880;9.190;2022-07-25T09:59:05;4.53;;;4.22;;
37867;SDS011;24011;48.880;9.190;2022-07-25T10:02:18;4.57;;;4.10;;
37867;SDS011;24011;48.880;9.190;2022-07-25T10:05:22;4.18;;;3.88;;
37867;SDS011;24011;48.880;9.190;2022-07-25T10:08:30;4.57;;;4.18;;
37867;SDS011;24011;48.880;9.190;2022-07-25T10:11:45;4.28;;;3.97;;
37867;SDS011;24011;48.880;9.190;2022-07-25T10:15:17;4.43;;;4.10;;
37867;SDS011;24011;48.880;9.190;2022-07-25T10:18:34;4.30;;;4.00;;
37867;SDS011;24011;48.880;9.190;2022-07-25T10:21:32;4.32;;;4.03;;
37867;SDS011;24011;48.880;9.190;2022-07-25T10:24:53;4.43;;;4.13;;
37867;SDS011;24011;48.880;9.190;2022-07-25T10:28:06;4.05;;;3.75;;
37867;SDS011;24011;48.880;9.190;2022-07-25T10:31:12;4.53;;;4.22;;
37867;SDS011;24011;48.880;9.190;2022-07-25T10:37:51;4.20;;;3.90;;
37867;SDS011;24011;48.880;9.190;2022-07-25T10:40:38;4.60;;;4.20;;
37867;SDS011;24011;48.880;9.190;2022-07-25T10:43:44;4.00;;;3.70;;
37867;SDS011;24011;48.880;9.190;2022-07-25T10:47:03;4.15;;;3.85;;
37867;SDS011;24011;48.880;9.190;2022-07-25T10:50:09;4.40;;;4.10;;
37867;SDS011;24011;48.880;9.190;2022-07-25T10:53:24;4.00;;;3.70;;
37867;SDS011;24011;48.880;9.190;2022-07-25T10:56:26;3.88;;;3.63;;
37867;SDS011;24011;48.880;9.190;2022-07-25T10:59:48;3.97;;;3.67;;
37867;SDS011;24011;48.880;9.190;2022-07-25T11:03:08;4.10;;;3.70;;
37867;SDS011;24011;48.880;9.190;2022-07-25T11:06:03;4.03;;;3.72;;
37867;SDS011;24011;48.880;9.190;2022-07-25T11:09:16;3.97;;;3.67;;
37867;SDS011;24011;48.880;9.190;2022-07-25T11:12:12;3.72;;;3.42;;
37867;SDS011;24011;48.880;9.190;2022-07-25T11:16:08;4.05;;;3.75;;
37867;SDS011;24011;48.880;9.190;2022-07-25T11:19:53;3.75;;;3.53;;
37867;SDS011;24011;48.880;9.190;2022-07-25T11:22:54;3.67;;;3.40;;
37867;SDS011;24011;48.880;9.190;2022-07-25T11:32:40;3.45;;;3.25;;
37867;SDS011;24011;48.880;9.190;2022-07-25T11:35:58;3.70;;;3.40;;
37867;SDS011;24011;48.880;9.190;2022-07-25T11:39:10;3.40;;;3.20;;
37867;SDS011;24011;48.880;9.190;2022-07-25T11:42:23;3.42;;;3.22;;
37867;SDS011;24011;48.880;9.190;2022-07-25T11:45:33;3.33;;;3.13;;
37867;SDS011;24011;48.880;9.190;2022-07-25T11:48:36;2.80;;;2.60;;
37867;SDS011;24011;48.880;9.190;2022-07-25T11:51:47;3.85;;;3.10;;
37867;SDS011;24011;48.880;9.190;2022-07-25T11:58:05;3.22;;;3.03;;
37867;SDS011;24011;48.880;9.190;2022-07-25T12:07:52;3.65;;;3.35;;
37867;SDS011;24011;48.880;9.190;2022-07-25T12:10:55;3.17;;;2.97;;
37867;SDS011;24011;48.880;9.190;2022-07-25T12:14:00;3.55;;;2.75;;
37867;SDS011;24011;48.880;9.190;2022-07-25T12:16:56;3.22;;;3.03;;
37867;SDS011;24011;48.880;9.190;2022-07-25T12:26:47;3.13;;;2.92;;
37867;SDS011;24011;48.880;9.190;2022-07-25T12:29:29;3.20;;;3.00;;
37867;SDS011;24011;48.880;9.190;2022-07-25T12:32:38;2.85;;;2.65;;
37867;SDS011;24011;48.880;9.190;2022-07-25T12:35:36;3.15;;;2.95;;
37867;SDS011;24011;48.880;9.190;2022-07-25T12:38:39;3.20;;;3.00;;
37867;SDS011;24011;48.880;9.190;2022-07-25T12:41:36;3.75;;;3.08;;
37867;SDS011;24011;48.880;9.190;2022-07-25T12:44:54;3.13;;;2.92;;
37867;SDS011;24011;48.880;9.190;2022-07-25T12:47:59;3.08;;;2.88;;
37867;SDS011;24011;48.880;9.190;2022-07-25T12:50:56;3.00;;;2.80;;
37867;SDS011;24011;48.880;9.190;2022-07-25T12:53:51;3.10;;;2.90;;
37867;SDS011;24011;48.880;9.190;2022-07-25T12:56:55;3.15;;;2.95;;
37867;SDS011;24011;48.880;9.190;2022-07-25T13:20:29;3.15;;;2.95;;
